sensor_id;sensor_type;location;lat;lon;timestamp;P1;durP1;ratioP1;P2;durP2;ratioP2
7563;SDS011;3823;53.586;10.040;2022-11-15T00:01:36;52.80;;;27.40;;
7563;SDS011;3823;53.586;10.040;2022-11-15T00:04:05;43.25;;;23.77;;
7563;SDS011;3823;53.586;10.040;2022-11-15T00:06:31;44.88;;;24.15;;
7563;SDS011;3823;53.586;10.040;2022-11-15T00:08:57;46.05;;;25.08;;
7563;SDS011;3823;53.586;10.040;2022-11-15T00:11:23;42.72;;;24.15;;
7563;SDS011;3823;53.586;10.040;2022-11-15T00:13:49;49.00;;;26.23;;
7563;SDS011;3823;53.586;10.040;2022-11-15T00:16:15;43.17;;;24.33;;
7563;SDS011;3823;53.586;10.040;2022-11-15T00:18:40;47.72;;;25.70;;
7563;SDS011;3823;53.586;10.040;2022-11-15T00:21:07;45.53;;;24.23;;
7563;SDS011;3823;53.586;10.040;2022-11-15T00:23:35;43.33;;;25.23;;
7563;SDS011;3823;53.586;10.040;2022-11-15T00:26:01;47.88;;;25.35;;
7563;SDS011;3823;53.586;10.040;2022-11-15T00:28:26;43.72;;;24.83;;
7563;SDS011;3823;53.586;10.040;2022-11-15T00:30:52;42.13;;;24.83;;
7563;SDS011;3823;53.586;10.040;2022-11-15T00:33:18;44.60;;;26.02;;
7563;SDS011;3823;53.586;10.040;2022-11-15T00:35:44;41.70;;;24.05;;
7563;SDS011;3823;53.586;10.040;2022-11-15T00:38:10;46.17;;;24.38;;
7563;SDS011;3823;53.586;10.040;2022-11-15T00:40:35;40.25;;;23.92;;
7563;SDS011;3823;53.586;10.040;2022-11-15T00:43:01;39.22;;;22.80;;
7563;SDS011;3823;53.586;10.040;2022-11-15T00:45:26;45.20;;;25.20;;
7563;SDS011;3823;53.586;10.040;2022-11-15T00:47:52;40.65;;;22.80;;
7563;SDS011;3823;53.586;10.040;2022-11-15T00:50:18;39.42;;;22.45;;
7563;SDS011;3823;53.586;10.040;2022-11-15T00:52:43;37.40;;;22.52;;
7563;SDS011;3823;53.586;10.040;2022-11-15T00:55:13;41.95;;;24.60;;
7563;SDS011;3823;53.586;10.040;2022-11-15T00:57:43;45.72;;;24.40;;
7563;SDS011;3823;53.586;10.040;2022-11-15T01:00:09;42.25;;;23.30;;
7563;SDS011;3823;53.586;10.040;2022-11-15T01:02:35;42.58;;;24.33;;
7563;SDS011;3823;53.586;10.040;2022-11-15T01:05:01;39.00;;;23.65;;
7563;SDS011;3823;53.586;10.040;2022-11-15T01:07:26;43.22;;;24.50;;
7563;SDS011;3823;53.586;10.040;2022-11-15T01:09:52;45.10;;;24.08;;
7563;SDS011;3823;53.586;10.040;2022-11-15T01:12:18;39.67;;;23.65;;
7563;SDS011;3823;53.586;10.040;2022-11-15T01:14:43;42.20;;;23.13;;
7563;SDS011;3823;53.586;10.040;2022-11-15T01:17:09;37.20;;;22.38;;
7563;SDS011;3823;53.586;10.040;2022-11-15T01:19:34;39.72;;;23.70;;
7563;SDS011;3823;53.586;10.040;2022-11-15T01:22:00;44.45;;;24.23;;
7563;SDS011;3823;53.586;10.040;2022-11-15T01:24:25;38.33;;;22.67;;
7563;SDS011;3823;53.586;10.040;2022-11-15T01:26:51;40.60;;;24.05;;
7563;SDS011;3823;53.586;10.040;2022-11-15T01:29:17;41.78;;;22.38;;
7563;SDS011;3823;53.586;10.040;2022-11-15T01:31:42;40.15;;;23.77;;
7563;SDS011;3823;53.586;10.040;2022-11-15T01:34:08;36.65;;;23.73;;
7563;SDS011;3823;53.586;10.040;2022-11-15T01:36:33;42.80;;;22.95;;
7563;SDS011;3823;53.586;10.040;2022-11-15T01:38:59;38.38;;;23.30;;
7563;SDS011;3823;53.586;10.040;2022-11-15T01:41:26;39.35;;;22.92;;
7563;SDS011;3823;53.586;10.040;2022-11-15T01:43:55;39.03;;;22.15;;
7563;SDS011;3823;53.586;10.040;2022-11-15T01:48:58;38.47;;;22.13;;
7563;SDS011;3823;53.586;10.040;2022-11-15T01:51:36;33.70;;;21.50;;
7563;SDS011;3823;53.586;10.040;2022-11-15T01:54:04;37.60;;;21.63;;
7563;SDS011;3823;53.586;10.040;2022-11-15T01:56:36;40.33;;;22.30;;
7563;SDS011;3823;53.586;10.040;2022-11-15T01:59:08;38.17;;;22.10;;
7563;SDS011;3823;53.586;10.040;2022-11-15T02:01:34;37.38;;;22.48;;
7563;SDS011;3823;53.586;10.040;2022-11-15T02:04:08;39.03;;;23.10;;
7563;SDS011;3823;53.586;10.040;2022-11-15T02:06:38;39.83;;;24.40;;
7563;SDS011;3823;53.586;10.040;2022-11-15T02:09:04;46.75;;;23.05;;
7563;SDS011;3823;53.586;10.040;2022-11-15T02:11:30;41.30;;;21.65;;
7563;SDS011;3823;53.586;10.040;2022-11-15T02:13:56;36.15;;;21.40;;
7563;SDS011;3823;53.586;10.040;2022-11-15T02:16:32;41.03;;;22.23;;
7563;SDS011;3823;53.586;10.040;2022-11-15T02:24:49;39.92;;;23.42;;
7563;SDS011;3823;53.586;10.040;2022-11-15T02:32:52;37.92;;;22.58;;
7563;SDS011;3823;53.586;10.040;2022-11-15T02:35:28;36.25;;;21.80;;
7563;SDS011;3823;53.586;10.040;2022-11-15T02:38:03;39.67;;;23.17;;
7563;SDS011;3823;53.586;10.040;2022-11-15T02:40:45;37.83;;;21.70;;
7563;SDS011;3823;53.586;10.040;2022-11-15T02:43:33;35.83;;;21.55;;
7563;SDS011;3823;53.586;10.040;2022-11-15T02:46:38;34.65;;;21.27;;
7563;SDS011;3823;53.586;10.040;2022-11-15T02:49:35;34.85;;;21.25;;
7563;SDS011;3823;53.586;10.040;2022-11-15T02:52:03;33.95;;;20.20;;
7563;SDS011;3823;53.586;10.040;2022-11-15T02:54:30;36.17;;;21.05;;
7563;SDS011;3823;53.586;10.040;2022-11-15T02:57:04;39.42;;;21.90;;
7563;SDS011;3823;53.586;10.040;2022-11-15T02:59:51;40.00;;;19.35;;
7563;SDS011;3823;53.586;10.040;2022-11-15T03:04:56;37.78;;;21.35;;
7563;SDS011;3823;53.586;10.040;2022-11-15T03:07:30;32.75;;;19.05;;
7563;SDS011;3823;53.586;10.040;2022-11-15T03:10:06;33.63;;;21.02;;
7563;SDS011;3823;53.586;10.040;2022-11-15T03:12:41;31.55;;;19.83;;
7563;SDS011;3823;53.586;10.040;2022-11-15T03:15:11;32.00;;;19.45;;
7563;SDS011;3823;53.586;10.040;2022-11-15T03:17:49;36.00;;;22.05;;
7563;SDS011;3823;53.586;10.040;2022-11-15T03:20:20;30.75;;;19.23;;
7563;SDS011;3823;53.586;10.040;2022-11-15T03:22:46;35.97;;;20.98;;
7563;SDS011;3823;53.586;10.040;2022-11-15T03:25:17;33.78;;;20.55;;
7563;SDS011;3823;53.586;10.040;2022-11-15T03:27:50;34.10;;;20.80;;
7563;SDS011;3823;53.586;10.040;2022-11-15T03:30:19;27.33;;;18.13;;
7563;SDS011;3823;53.586;10.040;2022-11-15T03:32:55;31.92;;;18.92;;
7563;SDS011;3823;53.586;10.040;2022-11-15T03:35:24;37.70;;;18.98;;
7563;SDS011;3823;53.586;10.040;2022-11-15T03:43:44;30.73;;;19.95;;
7563;SDS011;3823;53.586;10.040;2022-11-15T03:49:15;28.58;;;18.40;;
7563;SDS011;3823;53.586;10.040;2022-11-15T03:51:59;31.80;;;19.58;;
7563;SDS011;3823;53.586;10.040;2022-11-15T03:54:26;33.53;;;19.88;;
7563;SDS011;3823;53.586;10.040;2022-11-15T03:56:52;32.00;;;19.15;;
7563;SDS011;3823;53.586;10.040;2022-11-15T03:59:17;30.90;;;17.92;;
7563;SDS011;3823;53.586;10.040;2022-11-15T04:01:43;31.10;;;18.95;;
7563;SDS011;3823;53.586;10.040;2022-11-15T04:04:09;35.85;;;19.77;;
7563;SDS011;3823;53.586;10.040;2022-11-15T04:06:34;31.20;;;17.65;;
7563;SDS011;3823;53.586;10.040;2022-11-15T04:09:00;32.47;;;18.13;;
7563;SDS011;3823;53.586;10.040;2022-11-15T04:11:25;34.40;;;19.65;;
7563;SDS011;3823;53.586;10.040;2022-11-15T04:13:51;29.02;;;18.27;;
7563;SDS011;3823;53.586;10.040;2022-11-15T04:16:16;29.48;;;18.85;;
7563;SDS011;3823;53.586;10.040;2022-11-15T04:18:42;28.42;;;17.15;;
7563;SDS011;3823;53.586;10.040;2022-11-15T04:21:08;35.63;;;17.92;;
7563;SDS011;3823;53.586;10.040;2022-11-15T04:23:52;28.48;;;18.05;;
7563;SDS011;3823;53.586;10.040;2022-11-15T04:26:19;31.80;;;19.33;;
7563;SDS011;3823;53.586;10.040;2022-11-15T04:28:46;33.85;;;18.77;;
7563;SDS011;3823;53.586;10.040;2022-11-15T04:31:31;32.83;;;18.63;;
7563;SDS011;3823;53.586;10.040;2022-11-15T04:33:57;30.77;;;17.38;;
7563;SDS011;3823;53.586;10.040;2022-11-15T04:36:23;32.17;;;20.50;;
7563;SDS011;3823;53.586;10.040;2022-11-15T04:39:07;32.35;;;18.23;;
7563;SDS011;3823;53.586;10.040;2022-11-15T04:41:33;35.30;;;18.88;;
7563;SDS011;3823;53.586;10.040;2022-11-15T04:43:59;30.65;;;18.95;;
7563;SDS011;3823;53.586;10.040;2022-11-15T04:46:25;33.80;;;18.33;;
7563;SDS011;3823;53.586;10.040;2022-11-15T04:48:51;33.22;;;19.20;;
7563;SDS011;3823;53.586;10.040;2022-11-15T04:51:17;24.88;;;16.35;;
7563;SDS011;3823;53.586;10.040;2022-11-15T04:53:43;30.80;;;17.60;;
7563;SDS011;3823;53.586;10.040;2022-11-15T04:56:09;34.42;;;19.13;;
7563;SDS011;3823;53.586;10.040;2022-11-15T04:58:35;32.95;;;17.80;;
7563;SDS011;3823;53.586;10.040;2022-11-15T05:01:10;32.55;;;19.08;;
7563;SDS011;3823;53.586;10.040;2022-11-15T05:03:39;29.42;;;18.08;;
7563;SDS011;3823;53.586;10.040;2022-11-15T05:06:24;26.80;;;16.70;;
7563;SDS011;3823;53.586;10.040;2022-11-15T05:08:49;29.70;;;18.23;;
7563;SDS011;3823;53.586;10.040;2022-11-15T05:11:15;30.30;;;17.67;;
7563;SDS011;3823;53.586;10.040;2022-11-15T05:13:40;36.88;;;19.17;;
7563;SDS011;3823;53.586;10.040;2022-11-15T05:16:06;29.23;;;18.27;;
7563;SDS011;3823;53.586;10.040;2022-11-15T05:18:32;27.25;;;17.02;;
7563;SDS011;3823;53.586;10.040;2022-11-15T05:21:04;34.67;;;19.65;;
7563;SDS011;3823;53.586;10.040;2022-11-15T05:23:31;29.58;;;17.02;;
7563;SDS011;3823;53.586;10.040;2022-11-15T05:26:00;29.80;;;19.67;;
7563;SDS011;3823;53.586;10.040;2022-11-15T05:28:26;24.92;;;17.08;;
7563;SDS011;3823;53.586;10.040;2022-11-15T05:30:52;26.75;;;17.05;;
7563;SDS011;3823;53.586;10.040;2022-11-15T05:33:17;27.20;;;17.52;;
7563;SDS011;3823;53.586;10.040;2022-11-15T05:35:45;25.73;;;16.52;;
7563;SDS011;3823;53.586;10.040;2022-11-15T05:38:15;28.75;;;18.15;;
7563;SDS011;3823;53.586;10.040;2022-11-15T05:40:41;27.17;;;17.35;;
7563;SDS011;3823;53.586;10.040;2022-11-15T05:43:07;24.85;;;17.75;;
7563;SDS011;3823;53.586;10.040;2022-11-15T05:45:34;26.40;;;16.33;;
7563;SDS011;3823;53.586;10.040;2022-11-15T05:48:01;27.13;;;16.83;;
7563;SDS011;3823;53.586;10.040;2022-11-15T05:50:31;29.73;;;18.40;;
7563;SDS011;3823;53.586;10.040;2022-11-15T05:52:56;28.40;;;17.38;;
7563;SDS011;3823;53.586;10.040;2022-11-15T05:55:22;28.05;;;18.20;;
7563;SDS011;3823;53.586;10.040;2022-11-15T05:57:48;30.00;;;17.60;;
7563;SDS011;3823;53.586;10.040;2022-11-15T06:00:14;29.25;;;17.15;;
7563;SDS011;3823;53.586;10.040;2022-11-15T06:02:39;30.65;;;17.48;;
7563;SDS011;3823;53.586;10.040;2022-11-15T06:05:05;29.27;;;18.13;;
7563;SDS011;3823;53.586;10.040;2022-11-15T06:07:31;33.85;;;18.98;;
7563;SDS011;3823;53.586;10.040;2022-11-15T06:09:57;31.17;;;17.77;;
7563;SDS011;3823;53.586;10.040;2022-11-15T06:12:23;33.03;;;19.42;;
7563;SDS011;3823;53.586;10.040;2022-11-15T06:14:48;32.10;;;19.65;;
7563;SDS011;3823;53.586;10.040;2022-11-15T06:17:14;30.77;;;18.88;;
7563;SDS011;3823;53.586;10.040;2022-11-15T06:19:40;28.27;;;17.58;;
7563;SDS011;3823;53.586;10.040;2022-11-15T06:22:05;28.48;;;18.38;;
7563;SDS011;3823;53.586;10.040;2022-11-15T06:24:31;28.65;;;17.88;;
7563;SDS011;3823;53.586;10.040;2022-11-15T06:26:57;28.40;;;17.98;;
7563;SDS011;3823;53.586;10.040;2022-11-15T06:29:22;26.35;;;17.48;;
7563;SDS011;3823;53.586;10.040;2022-11-15T06:31:48;25.10;;;15.68;;
7563;SDS011;3823;53.586;10.040;2022-11-15T06:34:13;28.05;;;19.35;;
7563;SDS011;3823;53.586;10.040;2022-11-15T06:36:39;28.77;;;20.02;;
7563;SDS011;3823;53.586;10.040;2022-11-15T06:39:05;31.60;;;18.77;;
7563;SDS011;3823;53.586;10.040;2022-11-15T06:41:33;47.75;;;19.77;;
7563;SDS011;3823;53.586;10.040;2022-11-15T06:43:59;33.00;;;17.98;;
7563;SDS011;3823;53.586;10.040;2022-11-15T06:46:25;33.63;;;19.13;;
7563;SDS011;3823;53.586;10.040;2022-11-15T06:48:51;31.42;;;18.45;;
7563;SDS011;3823;53.586;10.040;2022-11-15T06:51:17;31.08;;;18.75;;
7563;SDS011;3823;53.586;10.040;2022-11-15T06:53:43;24.52;;;16.92;;
7563;SDS011;3823;53.586;10.040;2022-11-15T06:56:09;27.52;;;18.05;;
7563;SDS011;3823;53.586;10.040;2022-11-15T06:58:35;25.67;;;16.17;;
7563;SDS011;3823;53.586;10.040;2022-11-15T07:01:05;30.63;;;18.77;;
7563;SDS011;3823;53.586;10.040;2022-11-15T07:03:36;28.38;;;17.00;;
7563;SDS011;3823;53.586;10.040;2022-11-15T07:06:03;30.50;;;18.75;;
7563;SDS011;3823;53.586;10.040;2022-11-15T07:08:29;27.90;;;17.23;;
7563;SDS011;3823;53.586;10.040;2022-11-15T07:10:58;33.40;;;17.38;;
7563;SDS011;3823;53.586;10.040;2022-11-15T07:13:26;27.90;;;17.73;;
7563;SDS011;3823;53.586;10.040;2022-11-15T07:15:53;29.15;;;18.70;;
7563;SDS011;3823;53.586;10.040;2022-11-15T07:18:19;24.35;;;16.70;;
7563;SDS011;3823;53.586;10.040;2022-11-15T07:20:45;29.60;;;18.17;;
7563;SDS011;3823;53.586;10.040;2022-11-15T07:23:11;33.47;;;18.50;;
7563;SDS011;3823;53.586;10.040;2022-11-15T07:25:36;30.63;;;18.52;;
7563;SDS011;3823;53.586;10.040;2022-11-15T07:28:02;32.60;;;16.80;;
7563;SDS011;3823;53.586;10.040;2022-11-15T07:30:28;36.22;;;19.55;;
7563;SDS011;3823;53.586;10.040;2022-11-15T07:32:54;36.25;;;20.20;;
7563;SDS011;3823;53.586;10.040;2022-11-15T07:35:21;34.58;;;20.23;;
7563;SDS011;3823;53.586;10.040;2022-11-15T07:38:20;32.55;;;19.67;;
7563;SDS011;3823;53.586;10.040;2022-11-15T07:40:40;37.83;;;20.30;;
7563;SDS011;3823;53.586;10.040;2022-11-15T07:43:06;32.50;;;18.90;;
7563;SDS011;3823;53.586;10.040;2022-11-15T07:45:33;27.33;;;17.75;;
7563;SDS011;3823;53.586;10.040;2022-11-15T07:47:59;28.25;;;18.08;;
7563;SDS011;3823;53.586;10.040;2022-11-15T07:50:25;31.05;;;18.23;;
7563;SDS011;3823;53.586;10.040;2022-11-15T07:52:56;31.38;;;18.85;;
7563;SDS011;3823;53.586;10.040;2022-11-15T07:55:23;34.97;;;18.38;;
7563;SDS011;3823;53.586;10.040;2022-11-15T07:57:49;29.92;;;18.63;;
7563;SDS011;3823;53.586;10.040;2022-11-15T08:00:15;32.13;;;19.30;;
7563;SDS011;3823;53.586;10.040;2022-11-15T08:02:41;33.75;;;20.00;;
7563;SDS011;3823;53.586;10.040;2022-11-15T08:05:07;33.72;;;19.75;;
7563;SDS011;3823;53.586;10.040;2022-11-15T08:07:33;29.45;;;18.83;;
7563;SDS011;3823;53.586;10.040;2022-11-15T08:09:59;32.83;;;18.30;;
7563;SDS011;3823;53.586;10.040;2022-11-15T08:12:26;31.13;;;19.17;;
7563;SDS011;3823;53.586;10.040;2022-11-15T08:14:53;30.27;;;18.70;;
7563;SDS011;3823;53.586;10.040;2022-11-15T08:17:20;30.85;;;17.92;;
7563;SDS011;3823;53.586;10.040;2022-11-15T08:19:45;30.48;;;19.25;;
7563;SDS011;3823;53.586;10.040;2022-11-15T08:22:11;32.45;;;18.33;;
7563;SDS011;3823;53.586;10.040;2022-11-15T08:24:37;29.55;;;18.45;;
7563;SDS011;3823;53.586;10.040;2022-11-15T08:27:03;28.25;;;17.48;;
7563;SDS011;3823;53.586;10.040;2022-11-15T08:29:28;38.03;;;18.05;;
7563;SDS011;3823;53.586;10.040;2022-11-15T08:31:54;34.50;;;18.92;;
7563;SDS011;3823;53.586;10.040;2022-11-15T08:34:21;35.83;;;19.27;;
7563;SDS011;3823;53.586;10.040;2022-11-15T08:36:46;31.73;;;18.27;;
7563;SDS011;3823;53.586;10.040;2022-11-15T08:39:12;32.13;;;18.92;;
7563;SDS011;3823;53.586;10.040;2022-11-15T08:41:38;32.80;;;20.05;;
7563;SDS011;3823;53.586;10.040;2022-11-15T08:44:03;30.73;;;18.67;;
7563;SDS011;3823;53.586;10.040;2022-11-15T08:46:29;33.40;;;17.75;;
7563;SDS011;3823;53.586;10.040;2022-11-15T08:48:55;30.10;;;18.38;;
7563;SDS011;3823;53.586;10.040;2022-11-15T08:51:20;27.05;;;17.05;;
7563;SDS011;3823;53.586;10.040;2022-11-15T08:53:46;28.25;;;18.35;;
7563;SDS011;3823;53.586;10.040;2022-11-15T08:56:12;29.52;;;19.27;;
7563;SDS011;3823;53.586;10.040;2022-11-15T08:58:39;32.75;;;18.63;;
7563;SDS011;3823;53.586;10.040;2022-11-15T09:01:05;30.83;;;19.10;;
7563;SDS011;3823;53.586;10.040;2022-11-15T09:03:31;29.98;;;17.63;;
7563;SDS011;3823;53.586;10.040;2022-11-15T09:05:57;27.65;;;18.83;;
7563;SDS011;3823;53.586;10.040;2022-11-15T09:08:24;27.73;;;17.10;;
7563;SDS011;3823;53.586;10.040;2022-11-15T09:10:50;27.70;;;17.77;;
7563;SDS011;3823;53.586;10.040;2022-11-15T09:13:16;29.75;;;18.15;;
7563;SDS011;3823;53.586;10.040;2022-11-15T09:15:42;32.08;;;17.30;;
7563;SDS011;3823;53.586;10.040;2022-11-15T09:18:07;27.85;;;17.50;;
7563;SDS011;3823;53.586;10.040;2022-11-15T09:20:33;31.35;;;16.73;;
7563;SDS011;3823;53.586;10.040;2022-11-15T09:23:02;27.17;;;17.98;;
7563;SDS011;3823;53.586;10.040;2022-11-15T09:25:28;27.38;;;17.33;;
7563;SDS011;3823;53.586;10.040;2022-11-15T09:27:54;27.08;;;17.08;;
7563;SDS011;3823;53.586;10.040;2022-11-15T09:30:20;25.17;;;16.90;;
7563;SDS011;3823;53.586;10.040;2022-11-15T09:32:46;42.08;;;17.23;;
7563;SDS011;3823;53.586;10.040;2022-11-15T09:35:12;30.67;;;16.70;;
7563;SDS011;3823;53.586;10.040;2022-11-15T09:37:37;27.90;;;17.15;;
7563;SDS011;3823;53.586;10.040;2022-11-15T09:40:03;28.75;;;17.70;;
7563;SDS011;3823;53.586;10.040;2022-11-15T09:42:33;27.02;;;16.92;;
7563;SDS011;3823;53.586;10.040;2022-11-15T09:45:17;23.17;;;16.20;;
7563;SDS011;3823;53.586;10.040;2022-11-15T09:50:50;29.98;;;17.15;;
7563;SDS011;3823;53.586;10.040;2022-11-15T09:53:29;38.05;;;17.75;;
7563;SDS011;3823;53.586;10.040;2022-11-15T09:56:20;29.05;;;17.70;;
7563;SDS011;3823;53.586;10.040;2022-11-15T10:04:33;28.73;;;17.55;;
7563;SDS011;3823;53.586;10.040;2022-11-15T10:07:10;27.92;;;17.65;;
7563;SDS011;3823;53.586;10.040;2022-11-15T10:09:57;29.33;;;17.65;;
7563;SDS011;3823;53.586;10.040;2022-11-15T10:12:30;32.17;;;17.35;;
7563;SDS011;3823;53.586;10.040;2022-11-15T10:15:00;23.90;;;15.00;;
7563;SDS011;3823;53.586;10.040;2022-11-15T10:17:37;29.38;;;16.65;;
7563;SDS011;3823;53.586;10.040;2022-11-15T10:20:18;19.02;;;14.70;;
7563;SDS011;3823;53.586;10.040;2022-11-15T10:22:53;27.60;;;14.73;;
7563;SDS011;3823;53.586;10.040;2022-11-15T10:25:24;27.15;;;15.73;;
7563;SDS011;3823;53.586;10.040;2022-11-15T10:28:04;21.08;;;15.23;;
7563;SDS011;3823;53.586;10.040;2022-11-15T10:30:41;25.27;;;16.17;;
7563;SDS011;3823;53.586;10.040;2022-11-15T10:41:36;19.35;;;13.95;;
7563;SDS011;3823;53.586;10.040;2022-11-15T10:46:42;21.88;;;16.35;;
7563;SDS011;3823;53.586;10.040;2022-11-15T10:51:45;20.05;;;13.30;;
7563;SDS011;3823;53.586;10.040;2022-11-15T10:54:22;19.55;;;14.27;;
7563;SDS011;3823;53.586;10.040;2022-11-15T10:56:55;19.58;;;13.13;;
7563;SDS011;3823;53.586;10.040;2022-11-15T10:59:27;17.63;;;12.40;;
7563;SDS011;3823;53.586;10.040;2022-11-15T11:01:58;28.13;;;13.15;;
7563;SDS011;3823;53.586;10.040;2022-11-15T11:04:24;18.33;;;13.10;;
7563;SDS011;3823;53.586;10.040;2022-11-15T11:06:51;17.20;;;11.45;;
7563;SDS011;3823;53.586;10.040;2022-11-15T11:09:35;16.73;;;13.00;;
7563;SDS011;3823;53.586;10.040;2022-11-15T11:12:04;17.42;;;11.75;;
7563;SDS011;3823;53.586;10.040;2022-11-15T11:14:32;19.08;;;11.50;;
7563;SDS011;3823;53.586;10.040;2022-11-15T11:17:03;16.65;;;12.27;;
7563;SDS011;3823;53.586;10.040;2022-11-15T11:25:13;16.60;;;11.15;;
7563;SDS011;3823;53.586;10.040;2022-11-15T11:30:56;20.63;;;12.20;;
7563;SDS011;3823;53.586;10.040;2022-11-15T11:42:09;16.88;;;11.25;;
7563;SDS011;3823;53.586;10.040;2022-11-15T11:47:30;18.60;;;12.93;;
7563;SDS011;3823;53.586;10.040;2022-11-15T11:50:10;16.00;;;12.10;;
7563;SDS011;3823;53.586;10.040;2022-11-15T11:53:02;18.38;;;13.70;;
7563;SDS011;3823;53.586;10.040;2022-11-15T11:55:44;18.52;;;12.25;;
7563;SDS011;3823;53.586;10.040;2022-11-15T11:58:14;18.80;;;13.55;;
7563;SDS011;3823;53.586;10.040;2022-11-15T12:00:59;17.50;;;11.90;;
7563;SDS011;3823;53.586;10.040;2022-11-15T12:03:43;17.27;;;12.20;;
7563;SDS011;3823;53.586;10.040;2022-11-15T12:06:24;16.25;;;11.60;;
7563;SDS011;3823;53.586;10.040;2022-11-15T12:09:12;23.52;;;12.57;;
7563;SDS011;3823;53.586;10.040;2022-11-15T12:14:26;21.77;;;13.02;;
7563;SDS011;3823;53.586;10.040;2022-11-15T12:16:56;16.15;;;11.93;;
7563;SDS011;3823;53.586;10.040;2022-11-15T12:19:23;16.90;;;11.73;;
7563;SDS011;3823;53.586;10.040;2022-11-15T12:21:58;17.40;;;11.63;;
7563;SDS011;3823;53.586;10.040;2022-11-15T12:24:39;15.60;;;11.45;;
7563;SDS011;3823;53.586;10.040;2022-11-15T12:27:16;19.70;;;12.38;;
7563;SDS011;3823;53.586;10.040;2022-11-15T12:29:59;18.88;;;10.75;;
7563;SDS011;3823;53.586;10.040;2022-11-15T12:32:29;14.20;;;11.48;;
7563;SDS011;3823;53.586;10.040;2022-11-15T12:34:58;16.67;;;11.40;;
7563;SDS011;3823;53.586;10.040;2022-11-15T12:42:38;15.60;;;10.95;;
7563;SDS011;3823;53.586;10.040;2022-11-15T12:45:29;19.35;;;11.68;;
7563;SDS011;3823;53.586;10.040;2022-11-15T13:04:21;14.70;;;10.98;;
7563;SDS011;3823;53.586;10.040;2022-11-15T13:06:59;16.67;;;10.68;;
7563;SDS011;3823;53.586;10.040;2022-11-15T13:14:43;16.98;;;10.70;;
7563;SDS011;3823;53.586;10.040;2022-11-15T13:19:44;14.05;;;11.30;;
7563;SDS011;3823;53.586;10.040;2022-11-15T13:22:11;14.45;;;10.80;;
7563;SDS011;3823;53.586;10.040;2022-11-15T13:24:56;15.38;;;10.52;;
7563;SDS011;3823;53.586;10.040;2022-11-15T13:27:22;14.43;;;10.57;;
7563;SDS011;3823;53.586;10.040;2022-11-15T13:29:47;13.93;;;9.38;;
7563;SDS011;3823;53.586;10.040;2022-11-15T13:32:14;17.83;;;10.55;;
7563;SDS011;3823;53.586;10.040;2022-11-15T13:34:44;20.63;;;10.93;;
7563;SDS011;3823;53.586;10.040;2022-11-15T13:39:47;13.18;;;9.77;;
7563;SDS011;3823;53.586;10.040;2022-11-15T13:42:17;18.85;;;10.32;;
7563;SDS011;3823;53.586;10.040;2022-11-15T13:44:55;12.60;;;10.25;;
7563;SDS011;3823;53.586;10.040;2022-11-15T13:47:25;13.02;;;10.57;;
7563;SDS011;3823;53.586;10.040;2022-11-15T13:49:52;13.77;;;9.40;;
7563;SDS011;3823;53.586;10.040;2022-11-15T13:52:17;12.85;;;9.90;;
7563;SDS011;3823;53.586;10.040;2022-11-15T13:54:56;18.25;;;10.68;;
7563;SDS011;3823;53.586;10.040;2022-11-15T13:58:02;15.75;;;11.55;;
7563;SDS011;3823;53.586;10.040;2022-11-15T14:03:18;12.43;;;10.40;;
7563;SDS011;3823;53.586;10.040;2022-11-15T14:08:35;16.77;;;10.90;;
7563;SDS011;3823;53.586;10.040;2022-11-15T14:11:19;16.83;;;11.43;;
7563;SDS011;3823;53.586;10.040;2022-11-15T14:17:02;12.98;;;10.13;;
7563;SDS011;3823;53.586;10.040;2022-11-15T14:24:44;16.38;;;10.65;;
7563;SDS011;3823;53.586;10.040;2022-11-15T14:27:27;15.63;;;9.93;;
7563;SDS011;3823;53.586;10.040;2022-11-15T14:29:54;15.20;;;11.02;;
7563;SDS011;3823;53.586;10.040;2022-11-15T14:34:49;15.35;;;10.65;;
7563;SDS011;3823;53.586;10.040;2022-11-15T14:37:25;33.83;;;10.55;;
7563;SDS011;3823;53.586;10.040;2022-11-15T14:39:50;16.50;;;10.68;;
7563;SDS011;3823;53.586;10.040;2022-11-15T14:42:17;13.27;;;10.65;;
7563;SDS011;3823;53.586;10.040;2022-11-15T14:44:44;14.88;;;10.05;;
7563;SDS011;3823;53.586;10.040;2022-11-15T14:47:09;15.32;;;9.88;;
7563;SDS011;3823;53.586;10.040;2022-11-15T14:49:35;13.70;;;9.73;;
7563;SDS011;3823;53.586;10.040;2022-11-15T14:52:00;15.02;;;10.00;;
7563;SDS011;3823;53.586;10.040;2022-11-15T14:54:26;15.50;;;9.05;;
7563;SDS011;3823;53.586;10.040;2022-11-15T14:56:52;15.95;;;9.77;;
7563;SDS011;3823;53.586;10.040;2022-11-15T14:59:17;13.63;;;9.02;;
7563;SDS011;3823;53.586;10.040;2022-11-15T15:01:43;15.25;;;11.05;;
7563;SDS011;3823;53.586;10.040;2022-11-15T15:04:09;15.48;;;10.77;;
7563;SDS011;3823;53.586;10.040;2022-11-15T15:06:35;12.93;;;9.75;;
7563;SDS011;3823;53.586;10.040;2022-11-15T15:09:01;16.60;;;9.80;;
7563;SDS011;3823;53.586;10.040;2022-11-15T15:11:28;16.33;;;10.38;;
7563;SDS011;3823;53.586;10.040;2022-11-15T15:13:55;14.75;;;9.10;;
7563;SDS011;3823;53.586;10.040;2022-11-15T15:16:23;12.07;;;9.80;;
7563;SDS011;3823;53.586;10.040;2022-11-15T15:18:49;13.15;;;10.30;;
7563;SDS011;3823;53.586;10.040;2022-11-15T15:21:25;15.35;;;9.05;;
7563;SDS011;3823;53.586;10.040;2022-11-15T15:23:52;14.68;;;10.32;;
7563;SDS011;3823;53.586;10.040;2022-11-15T15:26:22;15.77;;;10.20;;
7563;SDS011;3823;53.586;10.040;2022-11-15T15:28:48;20.42;;;9.88;;
7563;SDS011;3823;53.586;10.040;2022-11-15T15:31:16;13.75;;;9.98;;
7563;SDS011;3823;53.586;10.040;2022-11-15T15:33:41;16.63;;;11.10;;
7563;SDS011;3823;53.586;10.040;2022-11-15T15:36:09;11.07;;;9.55;;
7563;SDS011;3823;53.586;10.040;2022-11-15T15:38:36;13.65;;;9.90;;
7563;SDS011;3823;53.586;10.040;2022-11-15T15:41:02;13.10;;;9.65;;
7563;SDS011;3823;53.586;10.040;2022-11-15T15:43:28;11.85;;;10.10;;
7563;SDS011;3823;53.586;10.040;2022-11-15T15:45:55;16.80;;;10.80;;
7563;SDS011;3823;53.586;10.040;2022-11-15T15:48:20;12.55;;;9.15;;
7563;SDS011;3823;53.586;10.040;2022-11-15T15:50:46;12.02;;;9.90;;
7563;SDS011;3823;53.586;10.040;2022-11-15T15:53:12;13.40;;;10.13;;
7563;SDS011;3823;53.586;10.040;2022-11-15T15:55:38;17.25;;;10.65;;
7563;SDS011;3823;53.586;10.040;2022-11-15T15:58:04;16.27;;;10.77;;
7563;SDS011;3823;53.586;10.040;2022-11-15T16:00:30;15.43;;;11.52;;
7563;SDS011;3823;53.586;10.040;2022-11-15T16:02:57;16.38;;;11.07;;
7563;SDS011;3823;53.586;10.040;2022-11-15T16:05:23;14.48;;;10.38;;
7563;SDS011;3823;53.586;10.040;2022-11-15T16:07:50;14.20;;;10.25;;
7563;SDS011;3823;53.586;10.040;2022-11-15T16:10:17;15.65;;;11.00;;
7563;SDS011;3823;53.586;10.040;2022-11-15T16:12:51;17.40;;;11.00;;
7563;SDS011;3823;53.586;10.040;2022-11-15T16:15:18;15.65;;;10.65;;
7563;SDS011;3823;53.586;10.040;2022-11-15T16:17:47;14.07;;;10.70;;
7563;SDS011;3823;53.586;10.040;2022-11-15T16:23:01;14.18;;;10.50;;
7563;SDS011;3823;53.586;10.040;2022-11-15T16:25:28;16.25;;;11.60;;
7563;SDS011;3823;53.586;10.040;2022-11-15T16:27:53;15.38;;;10.38;;
7563;SDS011;3823;53.586;10.040;2022-11-15T16:30:20;15.90;;;11.43;;
7563;SDS011;3823;53.586;10.040;2022-11-15T16:32:46;14.70;;;10.55;;
7563;SDS011;3823;53.586;10.040;2022-11-15T16:35:12;16.05;;;11.38;;
7563;SDS011;3823;53.586;10.040;2022-11-15T16:37:39;13.85;;;10.07;;
7563;SDS011;3823;53.586;10.040;2022-11-15T16:40:48;16.85;;;10.38;;
7563;SDS011;3823;53.586;10.040;2022-11-15T16:42:57;18.15;;;12.40;;
7563;SDS011;3823;53.586;10.040;2022-11-15T16:45:24;15.13;;;10.98;;
7563;SDS011;3823;53.586;10.040;2022-11-15T16:47:50;17.75;;;11.55;;
7563;SDS011;3823;53.586;10.040;2022-11-15T16:50:18;14.23;;;10.98;;